sensor_id;sensor_type;location;lat;lon;timestamp;P1;durP1;ratioP1;P2;durP2;ratioP2
12224;SDS011;6175;50.956;11.064;2023-09-18T00:02:13;5.22;;;4.50;;
12224;SDS011;6175;50.956;11.064;2023-09-18T00:04:40;5.00;;;4.57;;
12224;SDS011;6175;50.956;11.064;2023-09-18T00:07:08;5.50;;;4.30;;
12224;SDS011;6175;50.956;11.064;2023-09-18T00:09:37;4.28;;;3.90;;
12224;SDS011;6175;50.956;11.064;2023-09-18T00:12:04;4.38;;;4.07;;
12224;SDS011;6175;50.956;11.064;2023-09-18T00:14:32;4.68;;;3.78;;
12224;SDS011;6175;50.956;11.064;2023-09-18T00:16:59;4.28;;;3.88;;
12224;SDS011;6175;50.956;11.064;2023-09-18T00:19:27;4.85;;;4.28;;
12224;SDS011;6175;50.956;11.064;2023-09-18T00:21:55;4.15;;;3.75;;
12224;SDS011;6175;50.956;11.064;2023-09-18T00:24:25;4.03;;;3.72;;
12224;SDS011;6175;50.956;11.064;2023-09-18T00:26:54;4.38;;;3.97;;
12224;SDS011;6175;50.956;11.064;2023-09-18T00:29:21;4.40;;;3.80;;
12224;SDS011;6175;50.956;11.064;2023-09-18T00:31:48;4.35;;;3.97;;
12224;SDS011;6175;50.956;11.064;2023-09-18T00:34:16;4.53;;;4.13;;
12224;SDS011;6175;50.956;11.064;2023-09-18T00:36:43;4.38;;;3.83;;
12224;SDS011;6175;50.956;11.064;2023-09-18T00:39:10;4.00;;;3.70;;
12224;SDS011;6175;50.956;11.064;2023-09-18T00:41:37;4.38;;;4.00;;
12224;SDS011;6175;50.956;11.064;2023-09-18T00:44:07;4.03;;;3.72;;
12224;SDS011;6175;50.956;11.064;2023-09-18T00:46:35;6.15;;;4.22;;
12224;SDS011;6175;50.956;11.064;2023-09-18T00:49:02;4.60;;;4.15;;
12224;SDS011;6175;50.956;11.064;2023-09-18T00:51:29;4.57;;;4.18;;
12224;SDS011;6175;50.956;11.064;2023-09-18T00:53:56;4.30;;;3.90;;
12224;SDS011;6175;50.956;11.064;2023-09-18T00:56:24;4.63;;;4.22;;
12224;SDS011;6175;50.956;11.064;2023-09-18T00:58:51;4.70;;;4.18;;
12224;SDS011;6175;50.956;11.064;2023-09-18T01:01:20;4.32;;;4.03;;
12224;SDS011;6175;50.956;11.064;2023-09-18T01:03:48;3.60;;;3.28;;
12224;SDS011;6175;50.956;11.064;2023-09-18T01:06:16;4.60;;;4.20;;
12224;SDS011;6175;50.956;11.064;2023-09-18T01:08:44;4.32;;;3.80;;
12224;SDS011;6175;50.956;11.064;2023-09-18T01:11:14;4.35;;;3.95;;
12224;SDS011;6175;50.956;11.064;2023-09-18T01:13:49;4.75;;;4.35;;
12224;SDS011;6175;50.956;11.064;2023-09-18T01:16:24;4.43;;;4.03;;
12224;SDS011;6175;50.956;11.064;2023-09-18T01:18:52;4.60;;;4.20;;
12224;SDS011;6175;50.956;11.064;2023-09-18T01:21:19;4.88;;;4.03;;
12224;SDS011;6175;50.956;11.064;2023-09-18T01:23:48;4.28;;;3.90;;
12224;SDS011;6175;50.956;11.064;2023-09-18T01:26:16;4.43;;;4.03;;
12224;SDS011;6175;50.956;11.064;2023-09-18T01:28:43;4.10;;;3.80;;
12224;SDS011;6175;50.956;11.064;2023-09-18T01:31:11;4.07;;;3.78;;
12224;SDS011;6175;50.956;11.064;2023-09-18T01:33:38;3.90;;;3.60;;
12224;SDS011;6175;50.956;11.064;2023-09-18T01:36:06;3.92;;;3.55;;
12224;SDS011;6175;50.956;11.064;2023-09-18T01:38:35;3.85;;;3.55;;
12224;SDS011;6175;50.956;11.064;2023-09-18T01:41:04;3.70;;;3.40;;
12224;SDS011;6175;50.956;11.064;2023-09-18T01:43:31;3.47;;;3.28;;
12224;SDS011;6175;50.956;11.064;2023-09-18T01:45:59;3.55;;;3.35;;
12224;SDS011;6175;50.956;11.064;2023-09-18T01:48:28;3.58;;;3.28;;
12224;SDS011;6175;50.956;11.064;2023-09-18T01:50:56;3.95;;;3.65;;
12224;SDS011;6175;50.956;11.064;2023-09-18T01:53:23;3.63;;;3.33;;
12224;SDS011;6175;50.956;11.064;2023-09-18T01:55:51;3.92;;;3.30;;
12224;SDS011;6175;50.956;11.064;2023-09-18T01:58:20;3.80;;;3.15;;
12224;SDS011;6175;50.956;11.064;2023-09-18T02:00:47;3.28;;;3.08;;
12224;SDS011;6175;50.956;11.064;2023-09-18T02:03:14;3.45;;;3.15;;
12224;SDS011;6175;50.956;11.064;2023-09-18T02:05:43;3.80;;;3.50;;
12224;SDS011;6175;50.956;11.064;2023-09-18T02:08:10;3.80;;;3.47;;
12224;SDS011;6175;50.956;11.064;2023-09-18T02:10:37;3.70;;;3.40;;
12224;SDS011;6175;50.956;11.064;2023-09-18T02:13:05;4.18;;;3.78;;
12224;SDS011;6175;50.956;11.064;2023-09-18T02:15:35;3.70;;;3.40;;
12224;SDS011;6175;50.956;11.064;2023-09-18T02:18:03;4.25;;;3.90;;
12224;SDS011;6175;50.956;11.064;2023-09-18T02:20:30;4.35;;;4.00;;
12224;SDS011;6175;50.956;11.064;2023-09-18T02:22:57;3.67;;;3.47;;
12224;SDS011;6175;50.956;11.064;2023-09-18T02:25:25;4.30;;;3.90;;
12224;SDS011;6175;50.956;11.064;2023-09-18T02:27:52;4.22;;;3.85;;
12224;SDS011;6175;50.956;11.064;2023-09-18T02:30:20;4.05;;;3.75;;
12224;SDS011;6175;50.956;11.064;2023-09-18T02:32:48;4.35;;;3.95;;
12224;SDS011;6175;50.956;11.064;2023-09-18T02:35:16;4.05;;;3.75;;
12224;SDS011;6175;50.956;11.064;2023-09-18T02:37:43;4.10;;;3.80;;
12224;SDS011;6175;50.956;11.064;2023-09-18T02:40:10;4.70;;;4.32;;
12224;SDS011;6175;50.956;11.064;2023-09-18T02:42:38;4.53;;;4.13;;
12224;SDS011;6175;50.956;11.064;2023-09-18T02:45:05;6.40;;;4.53;;
12224;SDS011;6175;50.956;11.064;2023-09-18T02:47:34;5.60;;;4.28;;
12224;SDS011;6175;50.956;11.064;2023-09-18T02:50:05;4.80;;;4.25;;
12224;SDS011;6175;50.956;11.064;2023-09-18T02:52:32;4.30;;;4.00;;
12224;SDS011;6175;50.956;11.064;2023-09-18T02:54:59;4.85;;;4.45;;
12224;SDS011;6175;50.956;11.064;2023-09-18T02:57:26;4.38;;;4.07;;
12224;SDS011;6175;50.956;11.064;2023-09-18T02:59:54;4.30;;;3.72;;
12224;SDS011;6175;50.956;11.064;2023-09-18T03:02:21;4.05;;;3.67;;
12224;SDS011;6175;50.956;11.064;2023-09-18T03:04:48;4.15;;;3.83;;
12224;SDS011;6175;50.956;11.064;2023-09-18T03:07:17;4.40;;;4.00;;
12224;SDS011;6175;50.956;11.064;2023-09-18T03:09:44;4.30;;;4.00;;
12224;SDS011;6175;50.956;11.064;2023-09-18T03:12:12;4.30;;;3.90;;
12224;SDS011;6175;50.956;11.064;2023-09-18T03:14:39;4.10;;;3.70;;
12224;SDS011;6175;50.956;11.064;2023-09-18T03:17:06;4.43;;;4.03;;
12224;SDS011;6175;50.956;11.064;2023-09-18T03:19:33;4.10;;;3.80;;
12224;SDS011;6175;50.956;11.064;2023-09-18T03:22:00;7.18;;;3.75;;
12224;SDS011;6175;50.956;11.064;2023-09-18T03:24:29;4.00;;;3.70;;
12224;SDS011;6175;50.956;11.064;2023-09-18T03:26:56;3.75;;;3.45;;
12224;SDS011;6175;50.956;11.064;2023-09-18T03:29:23;3.72;;;3.42;;
12224;SDS011;6175;50.956;11.064;2023-09-18T03:31:51;3.95;;;3.65;;
12224;SDS011;6175;50.956;11.064;2023-09-18T03:34:17;4.40;;;3.55;;
12224;SDS011;6175;50.956;11.064;2023-09-18T03:36:45;4.07;;;3.78;;
12224;SDS011;6175;50.956;11.064;2023-09-18T03:39:12;3.70;;;3.40;;
12224;SDS011;6175;50.956;11.064;2023-09-18T03:41:41;4.50;;;3.53;;
12224;SDS011;6175;50.956;11.064;2023-09-18T03:44:08;3.33;;;3.03;;
12224;SDS011;6175;50.956;11.064;2023-09-18T03:46:36;3.50;;;3.20;;
12224;SDS011;6175;50.956;11.064;2023-09-18T03:49:03;4.90;;;3.30;;
12224;SDS011;6175;50.956;11.064;2023-09-18T03:51:31;3.72;;;3.30;;
12224;SDS011;6175;50.956;11.064;2023-09-18T03:53:58;3.85;;;3.55;;
12224;SDS011;6175;50.956;11.064;2023-09-18T03:56:25;3.65;;;3.35;;
12224;SDS011;6175;50.956;11.064;2023-09-18T03:58:53;3.80;;;3.35;;
12224;SDS011;6175;50.956;11.064;2023-09-18T04:01:22;3.47;;;3.17;;
12224;SDS011;6175;50.956;11.064;2023-09-18T04:03:50;4.15;;;3.47;;
12224;SDS011;6175;50.956;11.064;2023-09-18T04:06:17;3.60;;;3.30;;
12224;SDS011;6175;50.956;11.064;2023-09-18T04:08:45;7.28;;;3.67;;
12224;SDS011;6175;50.956;11.064;2023-09-18T04:11:13;3.63;;;3.25;;
12224;SDS011;6175;50.956;11.064;2023-09-18T04:13:40;4.32;;;3.08;;
12224;SDS011;6175;50.956;11.064;2023-09-18T04:16:08;3.80;;;3.25;;
12224;SDS011;6175;50.956;11.064;2023-09-18T04:18:38;3.42;;;3.22;;
12224;SDS011;6175;50.956;11.064;2023-09-18T04:21:05;3.50;;;3.20;;
12224;SDS011;6175;50.956;11.064;2023-09-18T04:23:32;3.40;;;3.20;;
12224;SDS011;6175;50.956;11.064;2023-09-18T04:26:01;3.58;;;3.20;;
12224;SDS011;6175;50.956;11.064;2023-09-18T04:28:31;3.42;;;3.13;;
12224;SDS011;6175;50.956;11.064;2023-09-18T04:30:58;3.90;;;3.40;;
12224;SDS011;6175;50.956;11.064;2023-09-18T04:33:27;3.10;;;2.80;;
12224;SDS011;6175;50.956;11.064;2023-09-18T04:35:54;3.63;;;3.33;;
12224;SDS011;6175;50.956;11.064;2023-09-18T04:38:21;3.60;;;3.30;;
12224;SDS011;6175;50.956;11.064;2023-09-18T04:40:49;4.40;;;3.85;;
12224;SDS011;6175;50.956;11.064;2023-09-18T04:43:16;3.60;;;3.30;;
12224;SDS011;6175;50.956;11.064;2023-09-18T04:45:44;3.33;;;3.13;;
12224;SDS011;6175;50.956;11.064;2023-09-18T04:48:11;3.70;;;3.40;;
12224;SDS011;6175;50.956;11.064;2023-09-18T04:50:39;3.60;;;3.30;;
12224;SDS011;6175;50.956;11.064;2023-09-18T04:53:07;4.00;;;3.60;;
12224;SDS011;6175;50.956;11.064;2023-09-18T04:55:34;4.10;;;3.80;;
12224;SDS011;6175;50.956;11.064;2023-09-18T04:58:03;4.00;;;3.60;;
12224;SDS011;6175;50.956;11.064;2023-09-18T05:00:31;3.92;;;3.58;;
12224;SDS011;6175;50.956;11.064;2023-09-18T05:02:58;3.50;;;3.20;;
12224;SDS011;6175;50.956;11.064;2023-09-18T05:05:26;3.78;;;3.47;;
12224;SDS011;6175;50.956;11.064;2023-09-18T05:07:55;4.43;;;3.78;;
12224;SDS011;6175;50.956;11.064;2023-09-18T05:10:23;4.25;;;3.85;;
12224;SDS011;6175;50.956;11.064;2023-09-18T05:12:50;4.43;;;3.85;;
12224;SDS011;6175;50.956;11.064;2023-09-18T05:15:23;4.22;;;3.83;;
12224;SDS011;6175;50.956;11.064;2023-09-18T05:17:51;3.97;;;3.50;;
12224;SDS011;6175;50.956;11.064;2023-09-18T05:20:22;3.70;;;3.40;;
12224;SDS011;6175;50.956;11.064;2023-09-18T05:22:50;4.35;;;3.92;;
12224;SDS011;6175;50.956;11.064;2023-09-18T05:25:20;3.58;;;3.33;;
12224;SDS011;6175;50.956;11.064;2023-09-18T05:27:47;3.78;;;3.47;;
12224;SDS011;6175;50.956;11.064;2023-09-18T05:30:21;4.00;;;3.63;;
12224;SDS011;6175;50.956;11.064;2023-09-18T05:32:48;3.80;;;3.50;;
12224;SDS011;6175;50.956;11.064;2023-09-18T05:35:16;3.72;;;3.42;;
12224;SDS011;6175;50.956;11.064;2023-09-18T05:37:43;3.55;;;3.25;;
12224;SDS011;6175;50.956;11.064;2023-09-18T05:40:11;4.25;;;3.25;;
12224;SDS011;6175;50.956;11.064;2023-09-18T05:42:41;5.00;;;4.15;;
12224;SDS011;6175;50.956;11.064;2023-09-18T05:45:09;4.60;;;3.58;;
12224;SDS011;6175;50.956;11.064;2023-09-18T05:47:36;4.20;;;3.90;;
12224;SDS011;6175;50.956;11.064;2023-09-18T05:50:04;4.03;;;3.72;;
12224;SDS011;6175;50.956;11.064;2023-09-18T05:52:32;4.40;;;3.75;;
12224;SDS011;6175;50.956;11.064;2023-09-18T05:54:59;3.60;;;3.40;;
12224;SDS011;6175;50.956;11.064;2023-09-18T05:57:27;3.67;;;3.30;;
12224;SDS011;6175;50.956;11.064;2023-09-18T05:59:56;4.07;;;3.65;;
12224;SDS011;6175;50.956;11.064;2023-09-18T06:02:23;3.90;;;3.60;;
12224;SDS011;6175;50.956;11.064;2023-09-18T06:04:54;4.00;;;3.70;;
12224;SDS011;6175;50.956;11.064;2023-09-18T06:07:23;3.95;;;3.58;;
12224;SDS011;6175;50.956;11.064;2023-09-18T06:09:50;4.38;;;3.72;;
12224;SDS011;6175;50.956;11.064;2023-09-18T06:12:17;4.35;;;3.40;;
12224;SDS011;6175;50.956;11.064;2023-09-18T06:14:44;4.32;;;3.78;;
12224;SDS011;6175;50.956;11.064;2023-09-18T06:17:15;3.88;;;3.53;;
12224;SDS011;6175;50.956;11.064;2023-09-18T06:19:42;4.00;;;3.70;;
12224;SDS011;6175;50.956;11.064;2023-09-18T06:22:10;3.67;;;3.38;;
12224;SDS011;6175;50.956;11.064;2023-09-18T06:24:37;4.20;;;3.60;;
12224;SDS011;6175;50.956;11.064;2023-09-18T06:27:04;4.00;;;3.60;;
12224;SDS011;6175;50.956;11.064;2023-09-18T06:29:32;4.45;;;4.07;;
12224;SDS011;6175;50.956;11.064;2023-09-18T06:31:59;5.78;;;3.85;;
12224;SDS011;6175;50.956;11.064;2023-09-18T06:34:28;4.25;;;3.65;;
12224;SDS011;6175;50.956;11.064;2023-09-18T06:36:55;4.03;;;3.72;;
12224;SDS011;6175;50.956;11.064;2023-09-18T06:39:22;4.03;;;3.72;;
12224;SDS011;6175;50.956;11.064;2023-09-18T06:41:51;5.88;;;3.97;;
12224;SDS011;6175;50.956;11.064;2023-09-18T06:44:18;4.53;;;4.20;;
12224;SDS011;6175;50.956;11.064;2023-09-18T06:46:46;4.32;;;3.92;;
12224;SDS011;6175;50.956;11.064;2023-09-18T06:49:14;4.40;;;3.97;;
12224;SDS011;6175;50.956;11.064;2023-09-18T06:51:42;4.32;;;3.92;;
12224;SDS011;6175;50.956;11.064;2023-09-18T06:54:09;4.40;;;3.80;;
12224;SDS011;6175;50.956;11.064;2023-09-18T06:56:37;4.90;;;3.78;;
12224;SDS011;6175;50.956;11.064;2023-09-18T06:59:04;5.18;;;4.25;;
12224;SDS011;6175;50.956;11.064;2023-09-18T07:01:31;4.20;;;3.80;;
12224;SDS011;6175;50.956;11.064;2023-09-18T07:03:58;5.28;;;4.30;;
12224;SDS011;6175;50.956;11.064;2023-09-18T07:06:26;4.45;;;3.70;;
12224;SDS011;6175;50.956;11.064;2023-09-18T07:08:54;4.22;;;3.83;;
12224;SDS011;6175;50.956;11.064;2023-09-18T07:11:22;4.57;;;3.83;;
12224;SDS011;6175;50.956;11.064;2023-09-18T07:13:50;4.63;;;4.22;;
12224;SDS011;6175;50.956;11.064;2023-09-18T07:16:17;4.07;;;3.78;;
12224;SDS011;6175;50.956;11.064;2023-09-18T07:18:44;4.78;;;4.32;;
12224;SDS011;6175;50.956;11.064;2023-09-18T07:21:11;5.63;;;3.80;;
12224;SDS011;6175;50.956;11.064;2023-09-18T07:23:39;4.55;;;4.07;;
12224;SDS011;6175;50.956;11.064;2023-09-18T07:26:08;5.03;;;4.15;;
12224;SDS011;6175;50.956;11.064;2023-09-18T07:28:35;3.90;;;3.50;;
12224;SDS011;6175;50.956;11.064;2023-09-18T07:31:04;5.28;;;3.92;;
12224;SDS011;6175;50.956;11.064;2023-09-18T07:33:32;4.97;;;4.47;;
12224;SDS011;6175;50.956;11.064;2023-09-18T07:35:59;5.05;;;4.03;;
12224;SDS011;6175;50.956;11.064;2023-09-18T07:38:26;5.15;;;4.00;;
12224;SDS011;6175;50.956;11.064;2023-09-18T07:40:53;5.63;;;4.20;;
12224;SDS011;6175;50.956;11.064;2023-09-18T07:43:23;9.68;;;5.38;;
12224;SDS011;6175;50.956;11.064;2023-09-18T07:45:50;20.73;;;9.48;;
12224;SDS011;6175;50.956;11.064;2023-09-18T07:48:18;6.53;;;3.90;;
12224;SDS011;6175;50.956;11.064;2023-09-18T07:50:45;5.13;;;4.35;;
12224;SDS011;6175;50.956;11.064;2023-09-18T07:53:14;5.40;;;3.75;;
12224;SDS011;6175;50.956;11.064;2023-09-18T07:55:42;8.02;;;4.90;;
12224;SDS011;6175;50.956;11.064;2023-09-18T07:58:09;6.65;;;4.05;;
12224;SDS011;6175;50.956;11.064;2023-09-18T08:00:38;7.22;;;4.45;;
12224;SDS011;6175;50.956;11.064;2023-09-18T08:03:05;8.57;;;4.72;;
12224;SDS011;6175;50.956;11.064;2023-09-18T08:05:32;8.90;;;5.57;;
12224;SDS011;6175;50.956;11.064;2023-09-18T08:07:59;10.38;;;5.22;;
12224;SDS011;6175;50.956;11.064;2023-09-18T08:10:30;4.60;;;3.72;;
12224;SDS011;6175;50.956;11.064;2023-09-18T08:12:57;4.85;;;3.97;;
12224;SDS011;6175;50.956;11.064;2023-09-18T08:15:23;4.25;;;3.85;;
12224;SDS011;6175;50.956;11.064;2023-09-18T08:17:52;6.88;;;3.65;;
12224;SDS011;6175;50.956;11.064;2023-09-18T08:20:19;4.72;;;4.32;;
12224;SDS011;6175;50.956;11.064;2023-09-18T08:22:46;4.10;;;3.70;;
12224;SDS011;6175;50.956;11.064;2023-09-18T08:25:15;4.47;;;4.00;;
12224;SDS011;6175;50.956;11.064;2023-09-18T08:27:42;4.05;;;3.72;;
12224;SDS011;6175;50.956;11.064;2023-09-18T08:30:10;6.22;;;3.72;;
12224;SDS011;6175;50.956;11.064;2023-09-18T08:32:38;4.15;;;3.75;;
12224;SDS011;6175;50.956;11.064;2023-09-18T08:35:08;5.93;;;4.00;;
12224;SDS011;6175;50.956;11.064;2023-09-18T08:37:35;6.22;;;3.40;;
12224;SDS011;6175;50.956;11.064;2023-09-18T08:40:03;6.25;;;4.00;;
12224;SDS011;6175;50.956;11.064;2023-09-18T08:42:34;5.97;;;3.67;;
12224;SDS011;6175;50.956;11.064;2023-09-18T08:45:02;5.20;;;3.30;;
12224;SDS011;6175;50.956;11.064;2023-09-18T08:47:34;6.05;;;3.80;;
12224;SDS011;6175;50.956;11.064;2023-09-18T08:50:02;5.22;;;3.60;;
12224;SDS011;6175;50.956;11.064;2023-09-18T08:52:31;8.07;;;3.55;;
12224;SDS011;6175;50.956;11.064;2023-09-18T08:54:59;6.80;;;3.72;;
12224;SDS011;6175;50.956;11.064;2023-09-18T08:57:26;6.47;;;3.65;;
12224;SDS011;6175;50.956;11.064;2023-09-18T08:59:55;5.95;;;3.30;;
12224;SDS011;6175;50.956;11.064;2023-09-18T09:02:23;7.55;;;3.70;;
12224;SDS011;6175;50.956;11.064;2023-09-18T09:04:50;7.25;;;3.83;;
12224;SDS011;6175;50.956;11.064;2023-09-18T09:07:17;7.47;;;3.17;;
12224;SDS011;6175;50.956;11.064;2023-09-18T09:09:46;7.60;;;3.30;;
12224;SDS011;6175;50.956;11.064;2023-09-18T09:12:13;7.55;;;3.50;;
12224;SDS011;6175;50.956;11.064;2023-09-18T09:14:41;7.40;;;3.55;;
12224;SDS011;6175;50.956;11.064;2023-09-18T09:17:29;10.80;;;3.80;;
12224;SDS011;6175;50.956;11.064;2023-09-18T09:20:05;4.80;;;3.40;;
12224;SDS011;6175;50.956;11.064;2023-09-18T09:22:34;5.50;;;3.28;;
12224;SDS011;6175;50.956;11.064;2023-09-18T09:25:03;6.15;;;3.05;;
12224;SDS011;6175;50.956;11.064;2023-09-18T09:27:41;6.70;;;3.33;;
12224;SDS011;6175;50.956;11.064;2023-09-18T09:30:09;4.70;;;3.38;;
12224;SDS011;6175;50.956;11.064;2023-09-18T09:32:36;8.32;;;3.13;;
12224;SDS011;6175;50.956;11.064;2023-09-18T09:35:05;5.88;;;3.45;;
12224;SDS011;6175;50.956;11.064;2023-09-18T09:37:32;6.53;;;3.20;;
12224;SDS011;6175;50.956;11.064;2023-09-18T09:40:03;7.32;;;3.22;;
12224;SDS011;6175;50.956;11.064;2023-09-18T09:42:39;6.95;;;2.85;;
12224;SDS011;6175;50.956;11.064;2023-09-18T09:45:10;8.10;;;3.80;;
12224;SDS011;6175;50.956;11.064;2023-09-18T09:47:38;7.57;;;3.33;;
12224;SDS011;6175;50.956;11.064;2023-09-18T09:50:06;5.90;;;2.83;;
12224;SDS011;6175;50.956;11.064;2023-09-18T09:52:34;6.93;;;3.15;;
12224;SDS011;6175;50.956;11.064;2023-09-18T09:55:02;6.68;;;3.00;;
12224;SDS011;6175;50.956;11.064;2023-09-18T09:57:30;6.35;;;3.00;;
12224;SDS011;6175;50.956;11.064;2023-09-18T10:00:04;6.38;;;2.92;;
12224;SDS011;6175;50.956;11.064;2023-09-18T10:02:48;5.43;;;3.10;;
12224;SDS011;6175;50.956;11.064;2023-09-18T10:05:15;4.95;;;2.90;;
12224;SDS011;6175;50.956;11.064;2023-09-18T10:07:44;10.32;;;3.10;;
12224;SDS011;6175;50.956;11.064;2023-09-18T10:10:11;5.22;;;2.63;;
12224;SDS011;6175;50.956;11.064;2023-09-18T10:12:39;5.60;;;3.20;;
12224;SDS011;6175;50.956;11.064;2023-09-18T10:15:08;6.28;;;2.90;;
12224;SDS011;6175;50.956;11.064;2023-09-18T10:17:36;5.28;;;2.97;;
12224;SDS011;6175;50.956;11.064;2023-09-18T10:20:08;4.80;;;2.80;;
12224;SDS011;6175;50.956;11.064;2023-09-18T10:22:42;7.20;;;2.88;;
12224;SDS011;6175;50.956;11.064;2023-09-18T10:25:13;5.82;;;3.05;;
12224;SDS011;6175;50.956;11.064;2023-09-18T10:27:55;4.13;;;2.70;;
12224;SDS011;6175;50.956;11.064;2023-09-18T10:30:28;4.60;;;3.00;;
12224;SDS011;6175;50.956;11.064;2023-09-18T10:32:56;5.03;;;2.40;;
12224;SDS011;6175;50.956;11.064;2023-09-18T10:35:24;5.88;;;2.85;;
12224;SDS011;6175;50.956;11.064;2023-09-18T10:37:53;6.90;;;3.17;;
12224;SDS011;6175;50.956;11.064;2023-09-18T10:40:23;6.50;;;2.85;;
12224;SDS011;6175;50.956;11.064;2023-09-18T10:42:53;4.38;;;2.55;;
12224;SDS011;6175;50.956;11.064;2023-09-18T10:45:21;6.32;;;2.70;;
12224;SDS011;6175;50.956;11.064;2023-09-18T10:47:50;5.53;;;2.85;;
12224;SDS011;6175;50.956;11.064;2023-09-18T10:50:31;4.80;;;2.85;;
12224;SDS011;6175;50.956;11.064;2023-09-18T10:52:59;3.45;;;2.42;;
12224;SDS011;6175;50.956;11.064;2023-09-18T10:55:27;4.43;;;2.72;;
12224;SDS011;6175;50.956;11.064;2023-09-18T10:57:54;5.47;;;2.63;;
12224;SDS011;6175;50.956;11.064;2023-09-18T11:00:24;4.75;;;3.10;;
12224;SDS011;6175;50.956;11.064;2023-09-18T11:02:56;4.03;;;2.65;;
12224;SDS011;6175;50.956;11.064;2023-09-18T11:05:35;6.28;;;2.80;;
12224;SDS011;6175;50.956;11.064;2023-09-18T11:10:58;3.65;;;2.45;;
12224;SDS011;6175;50.956;11.064;2023-09-18T11:13:29;4.13;;;2.40;;
12224;SDS011;6175;50.956;11.064;2023-09-18T11:16:00;5.55;;;2.90;;
12224;SDS011;6175;50.956;11.064;2023-09-18T11:18:33;3.60;;;2.90;;
12224;SDS011;6175;50.956;11.064;2023-09-18T11:21:07;2.78;;;2.25;;
12224;SDS011;6175;50.956;11.064;2023-09-18T11:23:35;5.68;;;3.00;;
12224;SDS011;6175;50.956;11.064;2023-09-18T11:26:07;5.35;;;2.75;;
12224;SDS011;6175;50.956;11.064;2023-09-18T11:28:34;4.18;;;2.30;;
12224;SDS011;6175;50.956;11.064;2023-09-18T11:31:02;4.25;;;2.70;;
12224;SDS011;6175;50.956;11.064;2023-09-18T11:33:31;3.75;;;2.20;;
12224;SDS011;6175;50.956;11.064;2023-09-18T11:36:01;3.95;;;2.95;;
12224;SDS011;6175;50.956;11.064;2023-09-18T11:38:30;4.00;;;2.47;;
12224;SDS011;6175;50.956;11.064;2023-09-18T11:40:58;4.20;;;2.78;;
12224;SDS011;6175;50.956;11.064;2023-09-18T11:43:28;4.25;;;2.42;;
12224;SDS011;6175;50.956;11.064;2023-09-18T11:45:56;3.22;;;2.50;;
12224;SDS011;6175;50.956;11.064;2023-09-18T11:48:25;4.03;;;2.45;;
12224;SDS011;6175;50.956;11.064;2023-09-18T11:50:55;5.53;;;2.55;;
12224;SDS011;6175;50.956;11.064;2023-09-18T11:53:24;4.03;;;2.65;;
12224;SDS011;6175;50.956;11.064;2023-09-18T11:55:53;3.90;;;2.30;;
12224;SDS011;6175;50.956;11.064;2023-09-18T11:58:20;6.88;;;2.70;;
12224;SDS011;6175;50.956;11.064;2023-09-18T12:00:48;4.65;;;2.58;;
12224;SDS011;6175;50.956;11.064;2023-09-18T12:03:16;4.38;;;2.72;;
12224;SDS011;6175;50.956;11.064;2023-09-18T12:05:50;4.15;;;2.80;;
12224;SDS011;6175;50.956;11.064;2023-09-18T12:08:18;3.30;;;2.50;;
12224;SDS011;6175;50.956;11.064;2023-09-18T12:10:49;4.78;;;2.63;;
12224;SDS011;6175;50.956;11.064;2023-09-18T12:13:16;4.95;;;2.42;;
12224;SDS011;6175;50.956;11.064;2023-09-18T12:15:43;2.40;;;2.20;;
12224;SDS011;6175;50.956;11.064;2023-09-18T12:18:11;7.43;;;2.90;;
12224;SDS011;6175;50.956;11.064;2023-09-18T12:20:44;6.45;;;2.90;;
12224;SDS011;6175;50.956;11.064;2023-09-18T12:23:12;3.03;;;2.47;;
12224;SDS011;6175;50.956;11.064;2023-09-18T12:25:39;3.60;;;2.60;;
12224;SDS011;6175;50.956;11.064;2023-09-18T12:28:08;4.88;;;2.58;;
12224;SDS011;6175;50.956;11.064;2023-09-18T12:30:36;3.47;;;2.33;;
12224;SDS011;6175;50.956;11.064;2023-09-18T12:33:03;4.00;;;2.40;;
12224;SDS011;6175;50.956;11.064;2023-09-18T12:35:31;4.88;;;2.72;;
12224;SDS011;6175;50.956;11.064;2023-09-18T12:37:58;4.45;;;2.75;;
12224;SDS011;6175;50.956;11.064;2023-09-18T12:40:26;3.28;;;2.25;;
12224;SDS011;6175;50.956;11.064;2023-09-18T12:42:54;5.18;;;2.40;;
12224;SDS011;6175;50.956;11.064;2023-09-18T12:45:24;3.35;;;2.40;;
12224;SDS011;6175;50.956;11.064;2023-09-18T12:47:51;3.75;;;2.20;;
12224;SDS011;6175;50.956;11.064;2023-09-18T12:50:19;3.35;;;2.53;;
12224;SDS011;6175;50.956;11.064;2023-09-18T12:52:46;4.65;;;2.13;;
12224;SDS011;6175;50.956;11.064;2023-09-18T12:55:22;2.63;;;2.13;;
12224;SDS011;6175;50.956;11.064;2023-09-18T12:57:50;2.17;;;2.03;;
12224;SDS011;6175;50.956;11.064;2023-09-18T13:00:18;2.72;;;2.42;;
12224;SDS011;6175;50.956;11.064;2023-09-18T13:02:47;4.28;;;2.20;;
12224;SDS011;6175;50.956;11.064;2023-09-18T13:05:19;5.90;;;2.20;;
12224;SDS011;6175;50.956;11.064;2023-09-18T13:07:50;4.78;;;2.60;;
12224;SDS011;6175;50.956;11.064;2023-09-18T13:10:18;4.30;;;2.35;;
12224;SDS011;6175;50.956;11.064;2023-09-18T13:12:47;5.05;;;2.67;;
12224;SDS011;6175;50.956;11.064;2023-09-18T13:15:23;3.33;;;2.35;;
12224;SDS011;6175;50.956;11.064;2023-09-18T13:17:54;3.47;;;2.47;;
12224;SDS011;6175;50.956;11.064;2023-09-18T13:20:21;4.10;;;2.33;;
12224;SDS011;6175;50.956;11.064;2023-09-18T13:22:51;3.63;;;2.28;;
12224;SDS011;6175;50.956;11.064;2023-09-18T13:25:19;3.08;;;2.42;;
12224;SDS011;6175;50.956;11.064;2023-09-18T13:27:46;3.13;;;2.35;;
12224;SDS011;6175;50.956;11.064;2023-09-18T13:30:13;3.20;;;2.22;;
12224;SDS011;6175;50.956;11.064;2023-09-18T13:32:42;4.00;;;1.90;;
12224;SDS011;6175;50.956;11.064;2023-09-18T13:35:11;2.17;;;1.80;;
12224;SDS011;6175;50.956;11.064;2023-09-18T13:37:39;6.88;;;2.75;;
12224;SDS011;6175;50.956;11.064;2023-09-18T13:40:06;4.03;;;2.13;;
12224;SDS011;6175;50.956;11.064;2023-09-18T13:42:34;3.65;;;1.90;;
12224;SDS011;6175;50.956;11.064;2023-09-18T13:45:01;4.32;;;2.03;;
12224;SDS011;6175;50.956;11.064;2023-09-18T13:47:30;3.40;;;2.13;;
12224;SDS011;6175;50.956;11.064;2023-09-18T13:49:57;2.50;;;1.80;;
12224;SDS011;6175;50.956;11.064;2023-09-18T13:52:26;4.35;;;2.00;;
12224;SDS011;6175;50.956;11.064;2023-09-18T13:54:53;4.65;;;2.05;;
12224;SDS011;6175;50.956;11.064;2023-09-18T13:57:21;2.45;;;1.90;;
12224;SDS011;6175;50.956;11.064;2023-09-18T13:59:49;3.97;;;2.08;;
12224;SDS011;6175;50.956;11.064;2023-09-18T14:02:16;2.92;;;1.90;;
12224;SDS011;6175;50.956;11.064;2023-09-18T14:04:43;2.85;;;1.77;;
12224;SDS011;6175;50.956;11.064;2023-09-18T14:07:11;2.35;;;1.85;;
12224;SDS011;6175;50.956;11.064;2023-09-18T14:09:39;3.50;;;1.90;;
12224;SDS011;6175;50.956;11.064;2023-09-18T14:12:07;3.20;;;1.85;;
12224;SDS011;6175;50.956;11.064;2023-09-18T14:14:34;4.82;;;2.10;;
12224;SDS011;6175;50.956;11.064;2023-09-18T14:17:02;3.53;;;1.98;;
12224;SDS011;6175;50.956;11.064;2023-09-18T14:19:29;2.22;;;1.65;;
12224;SDS011;6175;50.956;11.064;2023-09-18T14:21:57;2.10;;;1.88;;
12224;SDS011;6175;50.956;11.064;2023-09-18T14:24:28;4.40;;;1.77;;
12224;SDS011;6175;50.956;11.064;2023-09-18T14:26:57;3.40;;;1.95;;
12224;SDS011;6175;50.956;11.064;2023-09-18T14:29:24;4.85;;;1.98;;
12224;SDS011;6175;50.956;11.064;2023-09-18T14:31:51;3.70;;;1.70;;
12224;SDS011;6175;50.956;11.064;2023-09-18T14:34:19;3.15;;;1.92;;
12224;SDS011;6175;50.956;11.064;2023-09-18T14:36:46;4.57;;;2.13;;
12224;SDS011;6175;50.956;11.064;2023-09-18T14:39:13;4.40;;;2.00;;
12224;SDS011;6175;50.956;11.064;2023-09-18T14:41:40;3.67;;;2.15;;
12224;SDS011;6175;50.956;11.064;2023-09-18T14:44:09;4.22;;;1.83;;
12224;SDS011;6175;50.956;11.064;2023-09-18T14:46:37;3.03;;;2.10;;
12224;SDS011;6175;50.956;11.064;2023-09-18T14:49:04;2.55;;;1.90;;
12224;SDS011;6175;50.956;11.064;2023-09-18T14:51:32;3.45;;;1.83;;
12224;SDS011;6175;50.956;11.064;2023-09-18T14:54:00;3.70;;;1.80;;
12224;SDS011;6175;50.956;11.064;2023-09-18T14:56:27;2.75;;;1.90;;
12224;SDS011;6175;50.956;11.064;2023-09-18T14:58:54;5.03;;;1.90;;